KUVA/UVA METAR and TAF weather

Enter ICAO airport designator
Station Type Date Time Source
KUVA METAR 2021/09/20 06:15 UTC NOAA

KUVA 200615Z AUTO 15005KT 10SM CLR 26/19 A2990 RMK AO2 T02600190


Station Type Date Time Source
KUVA Decoded METAR 2021/09/20 06:15 UTC NOAA

Uvalde, Garner Field Airport, TX, United States (KUVA) 29-12-40N 099-44-36W
Sep 20, 2021 - 02:15 AM EDT / 2021.09.20 0615 UTC
Wind: from the SSE (150 degrees) at 6 MPH (5 KT):0
Visibility: 10 mile(s):0
Sky conditions: clear
Temperature: 78.8 F (26.0 C)
Dew Point: 66.2 F (19.0 C)
Relative Humidity: 65%
Pressure (altimeter): 29.9 in. Hg (1012 hPa)
ob: KUVA 200615Z AUTO 15005KT 10SM CLR 26/19 A2990 RMK AO2 T02600190
cycle: 6

Station Type Date Time Source
KUVA TAF UTC NOAA

Error!

Example: see airport list